Sunday, February 17, 2019, 3:08 PM EST
Back to Local

KIZG, Fryeburg Eastern Slopes Rgnl

Location: Fryeburg, ME, United States Lat: 43.983
Local Time: 3:08 PM EST (20:08 GMT) Lon: -70.95
Time Zone: US/Eastern Elev: 452 ft

Show me the last for .
Show Coded

Time T Td Feel RH Dir Speed Gust Alt SLP Vis Weather Sky Remarks
2019-02-17 14:54 31 1 - 27 - Calm - 30.04 30.07 10 CLR None
2019-02-17 13:54 30 3 26 30 80° 3 - 30.03 30.05 10 CLR None
2019-02-17 12:54 28 2 - 31 - Calm - 30.06 30.08 10 CLR 6-hr Min Temp (1pm): -2.0°F
6-hr Max Temp (1pm): 28.0°F
2019-02-17 11:54 28 0 - 29 - Calm - 30.08 30.10 10 CLR None
2019-02-17 10:54 24 2 - 37 - Calm - 30.10 30.12 10 CLR None
2019-02-17 09:54 21 4 - 46 - Calm - 30.09 30.12 10 CLR None
2019-02-17 08:54 18 4 - 53 - Calm - 30.09 30.11 10 CLR None
2019-02-17 07:54 6 1 - 79 - Calm - 30.07 30.10 10 CLR None
2019-02-17 06:54 -2 -5 - 86 - Calm - 30.04 30.07 10 CLR 6-hr Min Temp (7am): -2.9°F
6-hr Max Temp (7am): 17.1°F
2019-02-17 05:54 0 -3 - 87 - Calm - 30.02 30.05 10 CLR None
2019-02-17 04:54 3 0 - 86 - Calm - 30.00 30.03 10 CLR None
2019-02-17 03:54 5 2 - 86 - Calm - 29.97 29.99 10 CLR None
2019-02-17 02:54 11 5 - 76 - Calm - 29.97 29.99 10 CLR None
2019-02-17 01:54 13 5 7 69 110° 3 - 29.98 30.00 10 CLR None
2019-02-17 00:54 16 6 9 64 300° 5 - 29.97 29.99 10 CLR 6-hr Min Temp (1am): 8.1°F
6-hr Max Temp (1am): 28.0°F
2019-02-16 23:54 10 6 2 83 250° 5 - 29.95 29.98 10 CLR 24-hr Min Temp (12am): 8.1°F
24-hr Max Temp (12am): 37.0°F
2019-02-16 22:54 13 7 - 76 - Calm - 29.94 29.96 10 CLR None
2019-02-16 21:54 19 7 14 58 280° 3 - 29.93 29.95 10 CLR None
2019-02-16 20:54 22 9 - 56 - Calm - 29.91 29.93 10 CLR None
2019-02-16 19:54 25 9 17 49 280° 7 - 29.89 29.91 10 CLR None
2019-02-16 18:54 27 12 20 52 Variable 6 - 29.86 29.88 10 CLR 6-hr Min Temp (7pm): 27.0°F
6-hr Max Temp (7pm): 37.0°F
2019-02-16 17:54 29 13 24 50 Variable 5 - 29.82 29.84 10 CLR None
2019-02-16 16:54 31 16 19 53 280° 8 18 29.79 29.80 10 CLR None
2019-02-16 15:54 34 17 23 49 290° 13 20 29.75 29.77 10 CLR None

Support USWX by starting your Amazon purchase here.